Main page
METAR-TAF:

METAR-TAF

Airports :

Donegal Airport

Donegal, Ireland

latitude: 55-02-39N, longitude: 8-20-28W, elevation: 9 m

Current weather observation

The report was made 3 hours and 10 minutes ago, at 18:30 UTC
Wind 11 kt from the West/Northwest
Temperature 11°C
Humidity 66%
Pressure 1025 hPa
Visibility 10 km or more
Few clouds at a height of 2800 ft

METAR: EIDL 171830Z 29011KT 9999 FEW028 11/05 Q1025

Time: 22:40 (21:40 UTC)

Forecast

The report was made 4 hours and 40 minutes ago, at 17:00 UTC
Forecast valid from 17 at 18 UTC to 17 at 21 UTC
Wind 10 kt from the West/Northwest
Visibility 10 km or more
Scattered clouds at a height of 4000 ft

TAF: EIDL 171700Z 1718/1721 30010KT 9999 SCT040

Weather observations and forecasts of more than 4000 airports (METAR and TAF reports).

The available stations are represented by yellow and red dots on the map.

Hover mouse over dot to see the name of the station.

Then click to see weather observations and forecasts.

To change the map : click on the green buttons with a black cross to zoom in, on the green button with a dash to zoom out, or on the green arrows for adjacent maps.


METAR-TAF: